createdAt,value
2018-10-16T00:01:53.829Z,51.80
2018-10-16T00:04:22.397Z,52.07
2018-10-16T00:06:50.769Z,52.59
2018-10-16T00:09:19.131Z,52.06
2018-10-16T00:11:59.530Z,52.90
2018-10-16T00:14:27.909Z,52.21
2018-10-16T00:16:56.375Z,51.75
2018-10-16T00:19:24.948Z,52.51
2018-10-16T00:21:53.432Z,52.23
2018-10-16T00:24:22.123Z,52.81
2018-10-16T00:26:50.504Z,52.36
2018-10-16T00:29:18.876Z,52.68
2018-10-16T00:31:47.228Z,52.70
2018-10-16T00:34:15.563Z,52.80
2018-10-16T00:36:43.908Z,52.90
2018-10-16T00:39:13.624Z,53.02
2018-10-16T00:41:42.415Z,52.80
2018-10-16T00:44:12.020Z,52.88
2018-10-16T00:46:41.736Z,53.19
2018-10-16T00:49:10.080Z,53.13
2018-10-16T00:51:39.722Z,53.56
2018-10-16T00:54:08.200Z,53.13
2018-10-16T00:56:36.785Z,53.86
2018-10-16T00:59:05.186Z,54.15
2018-10-16T01:01:34.515Z,54.38
2018-10-16T01:04:04.163Z,54.57
2018-10-16T01:06:33.729Z,54.92
2018-10-16T01:09:02.108Z,54.18
2018-10-16T01:11:30.484Z,54.73
2018-10-16T01:13:59.454Z,54.53
2018-10-16T01:16:27.857Z,54.63
2018-10-16T01:18:56.822Z,54.90
2018-10-16T01:21:25.198Z,54.74
2018-10-16T01:23:53.584Z,55.35
2018-10-16T01:26:21.966Z,54.85
2018-10-16T01:28:50.336Z,54.76
2018-10-16T01:31:18.698Z,55.29
2018-10-16T01:33:47.056Z,54.98
2018-10-16T01:36:15.428Z,54.89
2018-10-16T01:38:43.793Z,54.80
2018-10-16T01:41:12.161Z,55.04
2018-10-16T01:43:40.791Z,55.18
2018-10-16T01:46:09.788Z,55.88
2018-10-16T01:48:38.675Z,55.88
2018-10-16T01:51:07.468Z,55.77
2018-10-16T01:53:35.848Z,55.36
2018-10-16T01:56:04.228Z,56.07
2018-10-16T01:58:32.612Z,55.79
2018-10-16T02:01:00.970Z,56.39
2018-10-16T02:03:29.371Z,56.87
2018-10-16T02:05:57.752Z,57.16
2018-10-16T02:08:26.176Z,57.11
2018-10-16T02:10:54.558Z,57.82
2018-10-16T02:13:22.934Z,57.82
2018-10-16T02:15:51.317Z,57.11
2018-10-16T02:18:19.697Z,57.58
2018-10-16T02:20:48.074Z,58.39
2018-10-16T02:23:16.461Z,60.31
2018-10-16T02:25:44.827Z,58.22
2018-10-16T02:28:13.213Z,59.83
2018-10-16T02:30:41.563Z,60.18
2018-10-16T02:33:10.562Z,58.37
2018-10-16T02:35:38.932Z,57.68
2018-10-16T02:38:07.344Z,57.59
2018-10-16T02:40:35.719Z,57.52
2018-10-16T02:43:04.098Z,58.26
2018-10-16T02:45:32.477Z,57.76
2018-10-16T02:48:00.853Z,58.19
2018-10-16T02:50:29.236Z,58.33
2018-10-16T02:52:57.614Z,59.18
2018-10-16T02:55:26.024Z,59.19
2018-10-16T02:57:54.476Z,58.40
2018-10-16T03:00:22.877Z,59.08
2018-10-16T03:02:51.252Z,59.31
2018-10-16T03:05:19.616Z,58.49
2018-10-16T03:07:48.001Z,58.17
2018-10-16T03:10:16.393Z,57.84
2018-10-16T03:12:45.060Z,58.65
2018-10-16T03:15:14.095Z,58.65
2018-10-16T03:17:42.481Z,59.04
2018-10-16T03:20:11.874Z,58.06
2018-10-16T03:22:41.720Z,58.78
2018-10-16T03:25:11.879Z,62.05
2018-10-16T03:27:40.704Z,59.27
2018-10-16T03:30:10.827Z,60.39
2018-10-16T03:32:39.928Z,59.25
2018-10-16T03:35:09.731Z,60.82
2018-10-16T03:37:39.045Z,59.81
2018-10-16T03:40:07.721Z,59.61
2018-10-16T03:42:36.088Z,59.90
2018-10-16T03:45:04.891Z,59.21
2018-10-16T03:47:33.333Z,59.21
2018-10-16T03:50:01.657Z,59.96
2018-10-16T03:52:30.054Z,59.83
2018-10-16T03:54:58.463Z,59.59
2018-10-16T03:57:27.028Z,59.93
2018-10-16T03:59:55.377Z,59.69
2018-10-16T04:02:23.879Z,59.94
2018-10-16T04:04:52.433Z,60.63
2018-10-16T04:07:20.798Z,60.43
2018-10-16T04:09:49.168Z,60.64
2018-10-16T04:12:17.580Z,60.46
2018-10-16T04:14:45.952Z,60.23
2018-10-16T04:17:14.284Z,60.18
2018-10-16T04:19:43.118Z,60.47
2018-10-16T04:22:11.493Z,60.20
2018-10-16T04:24:39.896Z,60.40
2018-10-16T04:27:08.227Z,60.65
2018-10-16T04:29:38.575Z,60.50
2018-10-16T04:32:06.960Z,60.23
2018-10-16T04:34:35.295Z,60.86
2018-10-16T04:37:03.692Z,60.62
2018-10-16T04:39:32.096Z,60.60
2018-10-16T04:42:01.541Z,60.86
2018-10-16T04:44:29.972Z,61.27
2018-10-16T04:46:58.462Z,60.33
2018-10-16T04:49:26.887Z,60.76
2018-10-16T04:51:55.377Z,61.28
2018-10-16T04:54:23.799Z,61.41
2018-10-16T04:56:52.240Z,62.93
2018-10-16T04:59:20.632Z,61.75
2018-10-16T05:01:49.808Z,62.07
2018-10-16T05:04:18.420Z,61.53
2018-10-16T05:06:46.843Z,61.65
2018-10-16T05:09:15.873Z,61.94
2018-10-16T05:11:47.244Z,61.94
2018-10-16T05:14:15.631Z,62.21
2018-10-16T05:16:44.035Z,62.36
2018-10-16T05:19:15.034Z,62.86
2018-10-16T05:21:43.417Z,62.75
2018-10-16T05:24:12.234Z,62.44
2018-10-16T05:26:42.002Z,62.28
2018-10-16T05:29:11.073Z,62.51
2018-10-16T05:31:40.333Z,62.43
2018-10-16T05:34:09.480Z,62.18
2018-10-16T05:36:38.960Z,62.62
2018-10-16T05:39:10.838Z,63.06
2018-10-16T05:41:40.840Z,62.83
2018-10-16T05:44:09.536Z,63.17
2018-10-16T05:46:37.959Z,63.63
2018-10-16T05:49:07.090Z,63.38
2018-10-16T05:51:35.544Z,63.02
2018-10-16T05:54:04.143Z,63.45
2018-10-16T05:56:32.595Z,64.19
2018-10-16T05:59:00.959Z,63.31
2018-10-16T06:01:29.337Z,63.84
2018-10-16T06:03:57.772Z,63.66
2018-10-16T06:06:26.228Z,63.31
2018-10-16T06:08:54.713Z,64.46
2018-10-16T06:11:23.159Z,66.11
2018-10-16T06:13:51.593Z,65.87
2018-10-16T06:16:20.032Z,64.08
2018-10-16T06:18:48.470Z,65.16
2018-10-16T06:21:16.906Z,64.19
2018-10-16T06:23:45.984Z,63.80
2018-10-16T06:26:14.443Z,63.53
2018-10-16T06:28:43.420Z,64.55
2018-10-16T06:51:25.636Z,63.79
2018-10-16T06:53:54.071Z,64.09
2018-10-16T06:56:22.504Z,63.24
2018-10-16T06:58:50.937Z,63.52
2018-10-16T07:01:19.927Z,63.86
2018-10-16T07:03:48.366Z,63.24
2018-10-16T07:06:16.845Z,63.33
2018-10-16T07:08:45.722Z,63.34
2018-10-16T07:11:14.151Z,63.35
2018-10-16T07:13:42.777Z,62.86
2018-10-16T07:16:11.199Z,63.35
2018-10-16T07:18:40.276Z,62.61
2018-10-16T07:21:08.754Z,62.74
2018-10-16T07:23:37.251Z,62.39
2018-10-16T07:26:05.988Z,62.39
2018-10-16T07:28:34.485Z,62.37
2018-10-16T07:31:02.891Z,61.82
2018-10-16T07:33:31.361Z,60.94
2018-10-16T07:35:59.826Z,60.97
2018-10-16T07:38:28.223Z,60.76
2018-10-16T07:40:56.695Z,60.74
2018-10-16T07:43:25.131Z,57.87
2018-10-16T07:45:53.527Z,59.07
2018-10-16T07:48:21.945Z,58.26
2018-10-16T07:50:50.844Z,57.94
2018-10-16T07:53:19.497Z,58.25
2018-10-16T07:55:47.935Z,57.47
2018-10-16T07:58:16.359Z,57.14
2018-10-16T08:00:46.561Z,56.63
2018-10-16T08:03:14.963Z,56.18
2018-10-16T08:05:43.377Z,54.68
2018-10-16T08:08:11.968Z,56.39
2018-10-16T08:10:40.479Z,54.31
2018-10-16T08:13:09.347Z,52.96
2018-10-16T08:15:38.532Z,52.11
2018-10-16T08:18:08.370Z,53.55
2018-10-16T08:20:37.352Z,53.12
2018-10-16T08:23:06.238Z,51.27
2018-10-16T08:25:34.739Z,51.87
2018-10-16T08:28:03.400Z,51.41
2018-10-16T08:30:31.957Z,52.04
2018-10-16T08:33:00.309Z,49.63
2018-10-16T08:35:28.746Z,49.99
2018-10-16T08:39:05.067Z,49.46
2018-10-16T08:42:18.849Z,50.60
2018-10-16T08:45:56.140Z,49.25
2018-10-16T08:48:35.820Z,49.06
2018-10-16T08:51:15.602Z,50.57
2018-10-16T08:53:44.010Z,49.12
2018-10-16T08:56:12.399Z,49.85
2018-10-16T08:58:40.829Z,49.05
2018-10-16T09:01:09.230Z,50.23
2018-10-16T09:03:37.596Z,49.17
2018-10-16T09:06:09.934Z,46.96
2018-10-16T09:08:39.812Z,50.03
2018-10-16T09:11:08.263Z,45.19
2018-10-16T09:13:36.811Z,45.26
2018-10-16T09:16:05.612Z,47.19
2018-10-16T09:18:34.911Z,45.74
2018-10-16T09:21:03.913Z,44.82
2018-10-16T09:23:32.997Z,46.62
2018-10-16T09:26:01.643Z,46.07
2018-10-16T09:28:31.113Z,45.02
2018-10-16T09:31:02.419Z,45.08
2018-10-16T09:33:32.355Z,46.17
2018-10-16T09:36:01.352Z,42.29
2018-10-16T09:38:31.025Z,44.20
2018-10-16T09:40:59.490Z,42.16
2018-10-16T09:43:27.947Z,45.54
2018-10-16T09:45:57.145Z,43.61
2018-10-16T09:48:25.566Z,42.70
2018-10-16T09:50:54.172Z,44.17
2018-10-16T09:53:23.513Z,44.54
2018-10-16T09:55:52.033Z,42.13
2018-10-16T09:58:24.110Z,42.82
2018-10-16T10:00:58.277Z,43.70
2018-10-16T10:03:30.970Z,44.39
2018-10-16T10:06:00.226Z,44.63
2018-10-16T10:08:28.748Z,44.76
2018-10-16T10:10:57.830Z,42.77
2018-10-16T10:13:26.726Z,44.31
2018-10-16T10:15:55.141Z,42.31
2018-10-16T10:18:24.053Z,43.44
2018-10-16T10:20:52.503Z,43.89
2018-10-16T10:23:21.000Z,42.94
2018-10-16T10:25:49.412Z,40.08
2018-10-16T10:28:18.027Z,42.55
2018-10-16T10:30:46.412Z,42.47
2018-10-16T10:33:15.553Z,40.71
2018-10-16T10:35:43.972Z,40.40
2018-10-16T10:38:12.383Z,40.64
2018-10-16T10:40:40.951Z,40.00
2018-10-16T10:43:10.687Z,40.18
2018-10-16T10:45:40.683Z,40.50
2018-10-16T10:48:10.352Z,41.04
2018-10-16T10:50:39.708Z,41.85
2018-10-16T10:53:08.789Z,41.43
2018-10-16T10:55:38.057Z,40.98
2018-10-16T10:58:06.974Z,40.86
2018-10-16T11:00:35.649Z,41.01
2018-10-16T11:03:04.782Z,41.75
2018-10-16T11:05:35.599Z,41.77
2018-10-16T11:08:04.109Z,41.28
2018-10-16T11:10:33.248Z,40.91
2018-10-16T11:13:01.783Z,41.52
2018-10-16T11:15:30.266Z,41.42
2018-10-16T11:17:58.867Z,41.21
2018-10-16T11:20:27.858Z,41.38
2018-10-16T11:22:56.479Z,41.89
2018-10-16T11:25:26.505Z,41.98
2018-10-16T11:27:54.931Z,42.04
2018-10-16T11:30:23.645Z,42.35
2018-10-16T11:32:52.291Z,42.78
2018-10-16T11:35:20.798Z,42.11
2018-10-16T11:37:49.252Z,42.02
2018-10-16T11:40:18.455Z,42.28
2018-10-16T11:42:47.730Z,42.11
2018-10-16T11:45:16.244Z,41.72
2018-10-16T11:47:44.904Z,42.16
2018-10-16T11:50:13.580Z,42.10
2018-10-16T11:52:42.380Z,42.53
2018-10-16T11:55:11.284Z,42.20
2018-10-16T11:57:40.421Z,41.77
2018-10-16T12:00:11.615Z,42.62
2018-10-16T12:02:40.186Z,41.75
2018-10-16T12:05:08.634Z,42.11
2018-10-16T12:07:37.212Z,41.65
2018-10-16T12:10:06.203Z,42.35
2018-10-16T12:12:37.201Z,41.91
2018-10-16T12:15:06.381Z,42.48
2018-10-16T12:17:41.840Z,41.87
2018-10-16T12:20:16.922Z,42.26
2018-10-16T12:22:45.266Z,42.40
2018-10-16T12:25:13.673Z,42.44
2018-10-16T12:27:41.995Z,42.24
2018-10-16T12:30:10.639Z,41.24
2018-10-16T12:32:38.999Z,42.05
2018-10-16T12:35:07.707Z,41.90
2018-10-16T12:37:36.086Z,41.41
2018-10-16T12:40:05.644Z,41.46
2018-10-16T12:42:34.033Z,41.81
2018-10-16T12:45:02.402Z,41.39
2018-10-16T12:47:30.736Z,41.65
2018-10-16T12:49:59.109Z,41.90
2018-10-16T12:52:27.479Z,41.61
2018-10-16T12:54:55.814Z,41.26
2018-10-16T12:57:24.237Z,40.98
2018-10-16T12:59:52.591Z,42.07
2018-10-16T13:02:20.881Z,41.77
2018-10-16T13:04:49.200Z,41.64
2018-10-16T13:07:48.362Z,40.87
2018-10-16T13:10:18.005Z,41.74
2018-10-16T13:12:46.884Z,41.56
2018-10-16T13:15:16.090Z,41.64
2018-10-16T13:17:44.994Z,41.31
2018-10-16T13:20:15.257Z,41.27
2018-10-16T13:22:45.099Z,42.17
2018-10-16T13:25:14.703Z,41.70
2018-10-16T13:27:43.203Z,41.94
2018-10-16T13:30:13.628Z,42.15
2018-10-16T13:32:42.020Z,41.81
2018-10-16T13:35:12.369Z,42.02
2018-10-16T13:37:40.837Z,42.54
2018-10-16T13:40:10.171Z,42.04
2018-10-16T13:42:38.516Z,42.84
2018-10-16T13:45:08.045Z,43.16
2018-10-16T13:47:36.413Z,42.92
2018-10-16T13:50:06.103Z,43.16
2018-10-16T13:52:34.427Z,43.04
2018-10-16T13:55:02.751Z,43.04
2018-10-16T13:57:31.087Z,43.05
2018-10-16T13:59:59.402Z,42.79
2018-10-16T14:02:27.740Z,42.78
2018-10-16T14:04:56.149Z,42.92
2018-10-16T14:07:24.440Z,43.06
2018-10-16T14:09:52.835Z,43.57
2018-10-16T14:12:21.170Z,43.87
2018-10-16T14:14:49.513Z,44.25
2018-10-16T14:17:17.837Z,44.39
2018-10-16T14:19:46.159Z,43.96
2018-10-16T14:22:14.522Z,44.23
2018-10-16T14:24:42.900Z,44.23
2018-10-16T14:27:11.246Z,43.69
2018-10-16T14:29:39.565Z,43.68
2018-10-16T14:32:07.987Z,44.36
2018-10-16T14:34:36.459Z,44.37
2018-10-16T14:37:04.644Z,44.82
2018-10-16T14:39:32.979Z,44.65
2018-10-16T14:42:01.344Z,45.05
2018-10-16T14:44:29.676Z,44.38
2018-10-16T14:46:58.029Z,44.94
2018-10-16T14:49:26.400Z,44.51
2018-10-16T14:51:54.794Z,44.88
2018-10-16T14:54:23.112Z,44.64
2018-10-16T14:56:51.438Z,44.70
2018-10-16T14:59:19.777Z,44.62
2018-10-16T15:01:48.105Z,45.34
2018-10-16T15:04:16.460Z,45.00
2018-10-16T15:06:44.801Z,45.08
2018-10-16T15:09:13.122Z,45.33
2018-10-16T15:11:41.485Z,45.79
2018-10-16T15:14:09.883Z,45.86
2018-10-16T15:16:38.245Z,45.74
2018-10-16T15:19:06.502Z,45.64
2018-10-16T15:21:34.841Z,45.96
2018-10-16T15:24:03.231Z,46.17
2018-10-16T15:26:31.533Z,46.42
2018-10-16T15:28:59.858Z,45.97
2018-10-16T15:31:28.214Z,46.16
2018-10-16T15:33:56.608Z,46.38
2018-10-16T15:36:24.900Z,45.82
2018-10-16T15:38:53.258Z,46.26
2018-10-16T15:41:21.610Z,46.59
2018-10-16T15:43:49.931Z,46.60
2018-10-16T15:46:18.262Z,46.69
2018-10-16T15:48:46.637Z,47.41
2018-10-16T15:51:14.953Z,47.39
2018-10-16T15:53:43.324Z,47.88
2018-10-16T15:56:11.752Z,47.67
2018-10-16T15:58:40.051Z,47.58
2018-10-16T16:01:08.390Z,47.50
2018-10-16T16:03:36.711Z,47.51
2018-10-16T16:06:05.555Z,48.04
2018-10-16T16:08:33.892Z,48.24
2018-10-16T16:11:02.221Z,48.42
2018-10-16T16:13:30.544Z,48.27
2018-10-16T16:15:58.922Z,48.74
2018-10-16T16:18:27.255Z,49.29
2018-10-16T16:20:55.570Z,49.04
2018-10-16T16:23:23.887Z,49.23
2018-10-16T16:25:52.284Z,49.79
2018-10-16T16:28:20.613Z,49.43
2018-10-16T16:30:48.948Z,49.87
2018-10-16T16:33:17.325Z,49.36
2018-10-16T16:35:45.681Z,50.34
2018-10-16T16:38:14.060Z,50.79
2018-10-16T16:40:42.351Z,50.14
2018-10-16T16:43:10.668Z,50.50
2018-10-16T16:45:38.989Z,50.53
2018-10-16T16:48:07.326Z,50.88
2018-10-16T16:50:35.646Z,51.03
2018-10-16T16:53:04.037Z,51.54
2018-10-16T16:55:32.375Z,51.54
2018-10-16T16:58:00.722Z,52.73
2018-10-16T17:00:29.053Z,52.27
2018-10-16T17:02:57.385Z,52.56
2018-10-16T17:05:26.055Z,52.85
2018-10-16T17:07:54.408Z,52.66
2018-10-16T17:10:22.764Z,53.39
2018-10-16T17:12:51.086Z,53.76
2018-10-16T17:15:19.440Z,53.13
2018-10-16T17:17:47.851Z,54.44
2018-10-16T17:20:16.982Z,54.25
2018-10-16T17:22:45.350Z,54.48
2018-10-16T17:25:14.984Z,54.29
2018-10-16T17:27:43.980Z,53.84
2018-10-16T17:30:14.316Z,54.57
2018-10-16T17:32:43.313Z,54.52
2018-10-16T17:35:12.396Z,54.98
2018-10-16T17:37:41.394Z,56.88
2018-10-16T17:40:12.126Z,56.08
2018-10-16T17:42:40.591Z,55.03
2018-10-16T17:45:10.996Z,55.23
2018-10-16T17:47:39.324Z,55.86
2018-10-16T17:50:10.805Z,56.01
2018-10-16T17:52:39.344Z,56.05
2018-10-16T17:55:08.337Z,56.70
2018-10-16T17:57:37.149Z,56.68
2018-10-16T18:00:06.883Z,56.54
2018-10-16T18:02:35.223Z,56.05
2018-10-16T18:05:03.555Z,56.21
2018-10-16T18:07:31.945Z,57.22
2018-10-16T18:10:00.280Z,57.14
2018-10-16T18:12:28.635Z,56.46
2018-10-16T18:14:56.991Z,56.83
2018-10-16T18:17:25.492Z,57.11
2018-10-16T18:19:53.840Z,57.07
2018-10-16T18:22:22.167Z,57.45
2018-10-16T18:24:50.505Z,57.30
2018-10-16T18:27:18.820Z,57.82
2018-10-16T18:29:47.206Z,57.98
2018-10-16T18:32:15.503Z,58.47
2018-10-16T18:34:43.849Z,57.94
2018-10-16T18:37:12.216Z,57.80
2018-10-16T18:39:40.634Z,58.39
2018-10-16T18:42:08.911Z,58.20
2018-10-16T18:44:37.234Z,57.96
2018-10-16T18:47:05.576Z,58.32
2018-10-16T18:49:33.920Z,58.55
2018-10-16T18:52:02.291Z,58.60
2018-10-16T18:54:30.668Z,58.61
2018-10-16T18:56:59.079Z,59.52
2018-10-16T18:59:27.373Z,59.18
2018-10-16T19:01:55.698Z,59.35
2018-10-16T19:04:24.057Z,59.18
2018-10-16T19:06:52.413Z,59.86
2018-10-16T19:09:20.744Z,59.93
2018-10-16T19:11:49.092Z,60.30
2018-10-16T19:14:17.425Z,59.79
2018-10-16T19:16:45.771Z,59.94
2018-10-16T19:19:14.481Z,60.39
2018-10-16T19:21:42.829Z,60.06
2018-10-16T19:24:11.164Z,60.11
2018-10-16T19:26:39.709Z,60.23
2018-10-16T19:29:08.058Z,60.51
2018-10-16T19:31:36.410Z,60.59
2018-10-16T19:34:04.743Z,60.88
2018-10-16T19:36:33.150Z,61.39
2018-10-16T19:39:01.501Z,60.86
2018-10-16T19:41:29.853Z,60.91
2018-10-16T19:43:58.160Z,60.88
2018-10-16T19:46:26.866Z,61.01
2018-10-16T19:48:55.205Z,61.38
2018-10-16T19:51:23.538Z,61.62
2018-10-16T19:53:51.874Z,61.43
2018-10-16T19:56:20.225Z,61.51
2018-10-16T19:58:48.563Z,62.31
2018-10-16T20:01:16.884Z,62.12
2018-10-16T20:03:45.187Z,62.20
2018-10-16T20:06:13.536Z,62.49
2018-10-16T20:08:41.947Z,63.27
2018-10-16T20:11:10.409Z,64.27
2018-10-16T20:13:38.747Z,64.16
2018-10-16T20:16:07.088Z,64.48
2018-10-16T20:18:35.477Z,63.83
2018-10-16T20:21:03.963Z,63.13
2018-10-16T20:23:32.316Z,64.06
2018-10-16T20:26:00.685Z,63.51
2018-10-16T20:28:29.053Z,63.15
2018-10-16T20:30:57.445Z,63.19
2018-10-16T20:33:25.834Z,63.03
2018-10-16T20:35:54.190Z,63.34
2018-10-16T20:38:22.538Z,63.27
2018-10-16T20:40:50.973Z,63.87
2018-10-16T20:43:19.317Z,63.48
2018-10-16T20:45:47.662Z,63.75
2018-10-16T20:48:15.980Z,64.62
2018-10-16T20:50:44.288Z,63.99
2018-10-16T20:53:12.660Z,64.27
2018-10-16T20:55:41.148Z,64.07
2018-10-16T20:58:09.499Z,64.37
2018-10-16T21:00:38.926Z,65.04
2018-10-16T21:03:07.266Z,65.37
2018-10-16T21:05:35.736Z,65.45
2018-10-16T21:08:03.972Z,65.03
2018-10-16T21:10:32.321Z,65.49
2018-10-16T21:13:00.656Z,65.51
2018-10-16T21:15:29.079Z,64.88
2018-10-16T21:17:57.398Z,65.37
2018-10-16T21:20:25.733Z,66.36
2018-10-16T21:22:54.087Z,67.90
2018-10-16T21:25:22.411Z,66.88
2018-10-16T21:27:50.746Z,65.83
2018-10-16T21:30:19.075Z,65.72
2018-10-16T21:32:47.419Z,65.79
2018-10-16T21:35:15.771Z,65.46
2018-10-16T21:37:44.103Z,65.91
2018-10-16T21:40:12.549Z,66.07
2018-10-16T21:42:40.878Z,65.58
2018-10-16T21:45:09.227Z,66.33
2018-10-16T21:47:37.560Z,66.84
2018-10-16T21:50:05.894Z,65.69
2018-10-16T21:52:34.222Z,65.97
2018-10-16T21:55:02.605Z,66.49
2018-10-16T21:57:30.940Z,65.85
2018-10-16T21:59:59.307Z,66.87
2018-10-16T22:02:32.960Z,66.19
2018-10-16T22:05:01.402Z,66.42
2018-10-16T22:07:29.800Z,66.60
2018-10-16T22:09:58.160Z,66.19
2018-10-16T22:12:26.504Z,67.15
2018-10-16T22:14:54.989Z,66.12
2018-10-16T22:17:23.414Z,66.20
2018-10-16T22:19:51.744Z,66.31
2018-10-16T22:22:20.081Z,66.41
2018-10-16T22:24:48.434Z,66.67
2018-10-16T22:27:16.779Z,67.07
2018-10-16T22:29:45.092Z,66.35
2018-10-16T22:32:13.434Z,66.50
2018-10-16T22:34:41.766Z,66.50
2018-10-16T22:37:10.213Z,67.27
2018-10-16T22:39:38.471Z,67.81
2018-10-16T22:42:06.845Z,67.23
2018-10-16T22:44:35.206Z,67.54
2018-10-16T22:47:03.593Z,67.74
2018-10-16T22:49:31.885Z,67.42
2018-10-16T22:52:00.230Z,67.47
2018-10-16T22:54:28.567Z,67.25
2018-10-16T22:56:59.863Z,67.78
2018-10-16T22:59:28.199Z,67.93
2018-10-16T23:01:56.516Z,69.53
2018-10-16T23:04:24.849Z,68.72
2018-10-16T23:06:53.231Z,68.37
2018-10-16T23:09:21.516Z,68.66
2018-10-16T23:11:49.843Z,68.73
2018-10-16T23:14:18.162Z,69.35
2018-10-16T23:16:46.515Z,69.24
2018-10-16T23:19:14.983Z,68.44
2018-10-16T23:21:43.296Z,69.17
2018-10-16T23:24:11.652Z,68.00
2018-10-16T23:26:39.996Z,68.44
2018-10-16T23:29:08.380Z,69.92
2018-10-16T23:31:36.686Z,69.11
2018-10-16T23:34:05.715Z,69.60
2018-10-16T23:36:34.054Z,69.31
2018-10-16T23:39:02.372Z,69.47
2018-10-16T23:41:30.739Z,69.71
2018-10-16T23:43:59.093Z,69.44
2018-10-16T23:46:27.633Z,68.88
2018-10-16T23:48:55.967Z,69.24
2018-10-16T23:51:24.306Z,69.28
2018-10-16T23:53:52.630Z,69.15
2018-10-16T23:56:20.956Z,69.69
2018-10-16T23:58:49.269Z,69.61
